sensor_id;sensor_type;location;lat;lon;timestamp;pressure;altitude;pressure_sealevel;temperature;humidity
19831;BME280;10076;52.008;4.708;2022-11-03T00:00:09;101295.41;;;14.17;100.00
19831;BME280;10076;52.008;4.708;2022-11-03T00:02:35;101288.97;;;13.97;100.00
19831;BME280;10076;52.008;4.708;2022-11-03T00:05:00;101285.06;;;14.14;100.00
19831;BME280;10076;52.008;4.708;2022-11-03T00:07:45;101287.56;;;14.15;100.00
19831;BME280;10076;52.008;4.708;2022-11-03T00:10:11;101289.97;;;14.18;100.00
19831;BME280;10076;52.008;4.708;2022-11-03T00:12:36;101282.63;;;14.11;100.00
19831;BME280;10076;52.008;4.708;2022-11-03T00:15:02;101274.56;;;14.12;100.00
19831;BME280;10076;52.008;4.708;2022-11-03T00:17:28;101270.19;;;14.22;100.00
19831;BME280;10076;52.008;4.708;2022-11-03T00:19:53;101266.41;;;13.92;100.00
19831;BME280;10076;52.008;4.708;2022-11-03T00:22:18;101265.81;;;13.99;100.00
19831;BME280;10076;52.008;4.708;2022-11-03T00:24:43;101261.91;;;13.71;100.00
19831;BME280;10076;52.008;4.708;2022-11-03T00:27:09;101263.75;;;13.92;100.00
19831;BME280;10076;52.008;4.708;2022-11-03T00:29:34;101252.75;;;13.85;100.00
19831;BME280;10076;52.008;4.708;2022-11-03T00:31:59;101253.59;;;13.86;100.00
19831;BME280;10076;52.008;4.708;2022-11-03T00:34:25;101256.00;;;13.89;100.00
19831;BME280;10076;52.008;4.708;2022-11-03T00:36:50;101247.28;;;13.76;100.00
19831;BME280;10076;52.008;4.708;2022-11-03T00:39:15;101245.13;;;13.81;100.00
19831;BME280;10076;52.008;4.708;2022-11-03T00:41:41;101253.13;;;13.92;100.00
19831;BME280;10076;52.008;4.708;2022-11-03T00:44:06;101248.53;;;13.83;100.00
19831;BME280;10076;52.008;4.708;2022-11-03T00:46:34;101251.31;;;14.03;100.00
19831;BME280;10076;52.008;4.708;2022-11-03T00:49:00;101253.69;;;13.74;100.00
19831;BME280;10076;52.008;4.708;2022-11-03T00:51:26;101248.88;;;13.78;100.00
19831;BME280;10076;52.008;4.708;2022-11-03T00:53:58;101242.84;;;13.77;100.00
19831;BME280;10076;52.008;4.708;2022-11-03T00:58:51;101237.63;;;13.64;100.00
19831;BME280;10076;52.008;4.708;2022-11-03T01:01:22;101222.63;;;13.52;100.00
19831;BME280;10076;52.008;4.708;2022-11-03T01:03:50;101230.16;;;13.69;100.00
19831;BME280;10076;52.008;4.708;2022-11-03T01:06:37;101238.63;;;13.74;100.00
19831;BME280;10076;52.008;4.708;2022-11-03T01:11:59;101222.09;;;13.81;100.00
19831;BME280;10076;52.008;4.708;2022-11-03T01:14:32;101218.38;;;13.84;100.00
19831;BME280;10076;52.008;4.708;2022-11-03T01:16:59;101208.44;;;13.75;100.00
19831;BME280;10076;52.008;4.708;2022-11-03T01:19:25;101214.69;;;13.52;100.00
19831;BME280;10076;52.008;4.708;2022-11-03T01:21:52;101215.91;;;13.70;100.00
19831;BME280;10076;52.008;4.708;2022-11-03T01:24:18;101218.09;;;13.87;100.00
19831;BME280;10076;52.008;4.708;2022-11-03T01:26:43;101202.19;;;13.76;100.00
19831;BME280;10076;52.008;4.708;2022-11-03T01:29:08;101199.03;;;13.82;100.00
19831;BME280;10076;52.008;4.708;2022-11-03T01:31:34;101202.91;;;13.78;100.00
19831;BME280;10076;52.008;4.708;2022-11-03T01:33:59;101193.63;;;13.83;100.00
19831;BME280;10076;52.008;4.708;2022-11-03T01:36:25;101190.72;;;13.76;100.00
19831;BME280;10076;52.008;4.708;2022-11-03T01:38:50;101192.03;;;13.81;100.00
19831;BME280;10076;52.008;4.708;2022-11-03T01:41:19;101186.03;;;13.90;100.00
19831;BME280;10076;52.008;4.708;2022-11-03T01:43:48;101181.19;;;13.73;100.00
19831;BME280;10076;52.008;4.708;2022-11-03T01:46:23;101180.47;;;13.71;100.00
19831;BME280;10076;52.008;4.708;2022-11-03T01:49:06;101173.50;;;13.92;100.00
19831;BME280;10076;52.008;4.708;2022-11-03T01:51:34;101173.94;;;13.64;100.00
19831;BME280;10076;52.008;4.708;2022-11-03T01:54:04;101175.16;;;13.71;100.00
19831;BME280;10076;52.008;4.708;2022-11-03T01:56:34;101163.84;;;13.80;100.00
19831;BME280;10076;52.008;4.708;2022-11-03T01:59:00;101171.28;;;13.75;100.00
19831;BME280;10076;52.008;4.708;2022-11-03T02:01:26;101163.44;;;13.95;100.00
19831;BME280;10076;52.008;4.708;2022-11-03T02:03:57;101169.84;;;14.04;100.00
19831;BME280;10076;52.008;4.708;2022-11-03T02:06:26;101168.53;;;13.87;100.00
19831;BME280;10076;52.008;4.708;2022-11-03T02:08:58;101165.63;;;13.79;100.00
19831;BME280;10076;52.008;4.708;2022-11-03T02:11:25;101169.00;;;13.81;100.00
19831;BME280;10076;52.008;4.708;2022-11-03T02:14:13;101159.97;;;13.73;100.00
19831;BME280;10076;52.008;4.708;2022-11-03T02:16:40;101148.88;;;13.90;100.00
19831;BME280;10076;52.008;4.708;2022-11-03T02:19:12;101140.53;;;13.73;100.00
19831;BME280;10076;52.008;4.708;2022-11-03T02:21:51;101141.63;;;13.92;100.00
19831;BME280;10076;52.008;4.708;2022-11-03T02:27:12;101131.00;;;13.92;100.00
19831;BME280;10076;52.008;4.708;2022-11-03T02:29:38;101116.75;;;13.93;100.00
19831;BME280;10076;52.008;4.708;2022-11-03T02:32:19;101115.66;;;14.06;100.00
19831;BME280;10076;52.008;4.708;2022-11-03T02:34:59;101109.38;;;13.96;100.00
19831;BME280;10076;52.008;4.708;2022-11-03T02:37:29;101105.75;;;13.97;100.00
19831;BME280;10076;52.008;4.708;2022-11-03T02:40:02;101099.16;;;13.92;100.00
19831;BME280;10076;52.008;4.708;2022-11-03T02:42:29;101096.00;;;14.09;100.00
19831;BME280;10076;52.008;4.708;2022-11-03T02:44:58;101093.47;;;13.85;100.00
19831;BME280;10076;52.008;4.708;2022-11-03T02:47:25;101091.31;;;13.79;100.00
19831;BME280;10076;52.008;4.708;2022-11-03T02:49:53;101084.41;;;14.10;100.00
19831;BME280;10076;52.008;4.708;2022-11-03T02:52:39;101076.72;;;13.85;100.00
19831;BME280;10076;52.008;4.708;2022-11-03T03:00:39;101056.94;;;13.78;100.00
19831;BME280;10076;52.008;4.708;2022-11-03T03:03:12;101073.59;;;13.80;100.00
19831;BME280;10076;52.008;4.708;2022-11-03T03:05:40;101070.66;;;13.94;100.00
19831;BME280;10076;52.008;4.708;2022-11-03T03:08:08;101058.84;;;13.98;100.00
19831;BME280;10076;52.008;4.708;2022-11-03T03:10:38;101059.00;;;13.75;100.00
19831;BME280;10076;52.008;4.708;2022-11-03T03:13:05;101062.47;;;13.97;100.00
19831;BME280;10076;52.008;4.708;2022-11-03T03:15:41;101051.00;;;13.85;100.00
19831;BME280;10076;52.008;4.708;2022-11-03T03:18:18;101047.06;;;13.58;100.00
19831;BME280;10076;52.008;4.708;2022-11-03T03:20:51;101042.59;;;13.70;100.00
19831;BME280;10076;52.008;4.708;2022-11-03T03:23:22;101039.91;;;13.80;100.00
19831;BME280;10076;52.008;4.708;2022-11-03T03:25:50;101037.13;;;13.82;100.00
19831;BME280;10076;52.008;4.708;2022-11-03T03:28:22;101034.75;;;13.79;100.00
19831;BME280;10076;52.008;4.708;2022-11-03T03:30:48;101030.75;;;13.74;100.00
19831;BME280;10076;52.008;4.708;2022-11-03T03:33:16;101030.19;;;14.01;100.00
19831;BME280;10076;52.008;4.708;2022-11-03T03:35:44;101036.38;;;14.02;100.00
19831;BME280;10076;52.008;4.708;2022-11-03T03:38:19;101032.38;;;13.96;100.00
19831;BME280;10076;52.008;4.708;2022-11-03T03:40:48;101037.09;;;13.93;100.00
19831;BME280;10076;52.008;4.708;2022-11-03T03:43:15;101027.97;;;13.75;100.00
19831;BME280;10076;52.008;4.708;2022-11-03T03:45:43;101021.22;;;13.71;100.00
19831;BME280;10076;52.008;4.708;2022-11-03T03:48:10;101018.75;;;13.48;100.00
19831;BME280;10076;52.008;4.708;2022-11-03T03:50:37;101029.22;;;13.60;100.00
19831;BME280;10076;52.008;4.708;2022-11-03T03:53:05;101016.91;;;13.59;100.00
19831;BME280;10076;52.008;4.708;2022-11-03T03:55:42;101015.31;;;13.68;100.00
19831;BME280;10076;52.008;4.708;2022-11-03T03:58:11;101015.78;;;13.73;100.00
19831;BME280;10076;52.008;4.708;2022-11-03T04:00:38;101014.03;;;13.62;100.00
19831;BME280;10076;52.008;4.708;2022-11-03T04:03:05;101010.63;;;13.71;100.00
19831;BME280;10076;52.008;4.708;2022-11-03T04:05:30;101014.59;;;13.77;100.00
19831;BME280;10076;52.008;4.708;2022-11-03T04:07:56;101004.59;;;13.80;100.00
19831;BME280;10076;52.008;4.708;2022-11-03T04:10:23;101001.31;;;13.77;100.00
19831;BME280;10076;52.008;4.708;2022-11-03T04:12:48;100992.28;;;13.79;100.00
19831;BME280;10076;52.008;4.708;2022-11-03T04:15:43;101010.97;;;13.78;100.00
19831;BME280;10076;52.008;4.708;2022-11-03T04:18:27;101004.09;;;13.75;100.00
19831;BME280;10076;52.008;4.708;2022-11-03T04:21:12;100992.53;;;13.65;100.00
19831;BME280;10076;52.008;4.708;2022-11-03T04:23:57;101007.97;;;13.71;100.00
19831;BME280;10076;52.008;4.708;2022-11-03T04:26:25;100998.09;;;13.62;100.00
19831;BME280;10076;52.008;4.708;2022-11-03T04:28:52;100988.66;;;13.80;100.00
19831;BME280;10076;52.008;4.708;2022-11-03T04:31:18;100995.19;;;13.65;100.00
19831;BME280;10076;52.008;4.708;2022-11-03T04:33:45;100991.69;;;13.76;100.00
19831;BME280;10076;52.008;4.708;2022-11-03T04:36:19;100980.63;;;13.60;100.00
19831;BME280;10076;52.008;4.708;2022-11-03T04:38:45;100975.16;;;13.72;100.00
19831;BME280;10076;52.008;4.708;2022-11-03T04:41:15;100972.97;;;13.77;100.00
19831;BME280;10076;52.008;4.708;2022-11-03T04:43:43;100965.13;;;13.76;100.00
19831;BME280;10076;52.008;4.708;2022-11-03T04:46:15;100962.63;;;13.52;100.00
19831;BME280;10076;52.008;4.708;2022-11-03T04:48:41;100971.63;;;13.82;100.00
19831;BME280;10076;52.008;4.708;2022-11-03T04:51:14;100966.31;;;13.82;100.00
19831;BME280;10076;52.008;4.708;2022-11-03T04:53:45;100962.16;;;14.00;100.00
19831;BME280;10076;52.008;4.708;2022-11-03T04:56:14;100959.16;;;13.94;100.00
19831;BME280;10076;52.008;4.708;2022-11-03T04:58:41;100958.75;;;14.09;100.00
19831;BME280;10076;52.008;4.708;2022-11-03T05:01:11;100953.88;;;13.83;100.00
19831;BME280;10076;52.008;4.708;2022-11-03T05:03:38;100949.31;;;13.85;100.00
19831;BME280;10076;52.008;4.708;2022-11-03T05:06:13;100950.72;;;13.89;100.00
19831;BME280;10076;52.008;4.708;2022-11-03T05:08:44;100942.72;;;14.00;100.00
19831;BME280;10076;52.008;4.708;2022-11-03T05:11:27;100935.69;;;14.10;100.00
19831;BME280;10076;52.008;4.708;2022-11-03T05:13:58;100939.88;;;13.81;100.00
19831;BME280;10076;52.008;4.708;2022-11-03T05:16:24;100931.91;;;13.92;100.00
19831;BME280;10076;52.008;4.708;2022-11-03T05:18:50;100924.44;;;13.86;100.00
19831;BME280;10076;52.008;4.708;2022-11-03T05:21:18;100917.22;;;14.08;100.00
19831;BME280;10076;52.008;4.708;2022-11-03T05:24:01;100916.69;;;13.94;100.00
19831;BME280;10076;52.008;4.708;2022-11-03T05:26:31;100902.94;;;14.20;100.00
19831;BME280;10076;52.008;4.708;2022-11-03T05:29:17;100896.72;;;14.10;100.00
19831;BME280;10076;52.008;4.708;2022-11-03T05:31:46;100898.22;;;14.24;100.00
19831;BME280;10076;52.008;4.708;2022-11-03T05:36:49;100889.41;;;14.23;100.00
19831;BME280;10076;52.008;4.708;2022-11-03T05:39:28;100891.66;;;14.28;100.00
19831;BME280;10076;52.008;4.708;2022-11-03T05:41:56;100889.94;;;14.38;100.00
19831;BME280;10076;52.008;4.708;2022-11-03T05:44:30;100900.91;;;14.53;100.00
19831;BME280;10076;52.008;4.708;2022-11-03T05:46:57;100887.38;;;14.36;100.00
19831;BME280;10076;52.008;4.708;2022-11-03T05:49:23;100886.78;;;14.33;100.00
19831;BME280;10076;52.008;4.708;2022-11-03T05:51:49;100880.91;;;14.50;100.00
19831;BME280;10076;52.008;4.708;2022-11-03T05:54:22;100868.91;;;14.35;100.00
19831;BME280;10076;52.008;4.708;2022-11-03T05:56:50;100867.00;;;14.37;100.00
19831;BME280;10076;52.008;4.708;2022-11-03T05:59:19;100870.47;;;14.37;100.00
19831;BME280;10076;52.008;4.708;2022-11-03T06:01:47;100866.03;;;14.38;100.00
19831;BME280;10076;52.008;4.708;2022-11-03T06:04:28;100867.63;;;14.50;100.00
19831;BME280;10076;52.008;4.708;2022-11-03T06:07:22;100867.13;;;14.15;100.00
19831;BME280;10076;52.008;4.708;2022-11-03T06:09:48;100869.38;;;14.19;100.00
19831;BME280;10076;52.008;4.708;2022-11-03T06:12:17;100856.59;;;14.34;100.00
19831;BME280;10076;52.008;4.708;2022-11-03T06:14:43;100856.16;;;14.29;100.00
19831;BME280;10076;52.008;4.708;2022-11-03T06:17:21;100860.97;;;14.35;100.00
19831;BME280;10076;52.008;4.708;2022-11-03T06:19:49;100856.13;;;14.49;100.00
19831;BME280;10076;52.008;4.708;2022-11-03T06:22:29;100851.50;;;14.21;100.00
19831;BME280;10076;52.008;4.708;2022-11-03T06:25:00;100847.06;;;14.51;100.00
19831;BME280;10076;52.008;4.708;2022-11-03T06:27:34;100848.88;;;14.51;100.00
19831;BME280;10076;52.008;4.708;2022-11-03T06:30:27;100835.75;;;14.50;100.00
19831;BME280;10076;52.008;4.708;2022-11-03T06:32:56;100830.47;;;14.39;100.00
19831;BME280;10076;52.008;4.708;2022-11-03T06:35:22;100825.06;;;14.40;100.00
19831;BME280;10076;52.008;4.708;2022-11-03T06:37:48;100828.41;;;14.42;100.00
19831;BME280;10076;52.008;4.708;2022-11-03T06:42:40;100830.56;;;14.28;100.00
19831;BME280;10076;52.008;4.708;2022-11-03T06:45:15;100828.41;;;14.42;100.00
19831;BME280;10076;52.008;4.708;2022-11-03T06:47:43;100831.22;;;14.41;100.00
19831;BME280;10076;52.008;4.708;2022-11-03T06:50:22;100827.94;;;14.57;100.00
19831;BME280;10076;52.008;4.708;2022-11-03T06:52:48;100827.25;;;14.55;100.00
19831;BME280;10076;52.008;4.708;2022-11-03T06:55:26;100840.25;;;14.58;100.00
19831;BME280;10076;52.008;4.708;2022-11-03T06:57:54;100822.47;;;14.50;100.00
19831;BME280;10076;52.008;4.708;2022-11-03T07:00:27;100825.00;;;14.31;100.00
19831;BME280;10076;52.008;4.708;2022-11-03T07:05:40;100833.69;;;14.62;100.00
19831;BME280;10076;52.008;4.708;2022-11-03T07:08:30;100821.53;;;14.40;100.00
19831;BME280;10076;52.008;4.708;2022-11-03T07:10:59;100822.63;;;14.57;100.00
19831;BME280;10076;52.008;4.708;2022-11-03T07:13:26;100819.41;;;14.63;100.00
19831;BME280;10076;52.008;4.708;2022-11-03T07:15:52;100816.97;;;14.42;100.00
19831;BME280;10076;52.008;4.708;2022-11-03T07:18:21;100821.09;;;14.64;100.00
19831;BME280;10076;52.008;4.708;2022-11-03T07:20:48;100815.69;;;14.75;100.00
19831;BME280;10076;52.008;4.708;2022-11-03T07:23:18;100817.09;;;14.79;100.00
19831;BME280;10076;52.008;4.708;2022-11-03T07:25:55;100812.06;;;14.76;100.00
19831;BME280;10076;52.008;4.708;2022-11-03T07:28:23;100804.53;;;14.81;100.00
19831;BME280;10076;52.008;4.708;2022-11-03T07:30:50;100801.56;;;14.75;100.00
19831;BME280;10076;52.008;4.708;2022-11-03T07:33:20;100811.81;;;14.89;100.00
19831;BME280;10076;52.008;4.708;2022-11-03T07:35:47;100806.75;;;14.76;100.00
19831;BME280;10076;52.008;4.708;2022-11-03T07:38:15;100808.34;;;14.58;100.00
19831;BME280;10076;52.008;4.708;2022-11-03T07:40:42;100801.03;;;14.81;100.00
19831;BME280;10076;52.008;4.708;2022-11-03T07:43:16;100800.50;;;14.87;100.00
19831;BME280;10076;52.008;4.708;2022-11-03T07:45:48;100809.03;;;15.00;100.00
19831;BME280;10076;52.008;4.708;2022-11-03T07:48:27;100807.91;;;14.93;100.00
19831;BME280;10076;52.008;4.708;2022-11-03T07:50:58;100801.59;;;14.94;100.00
19831;BME280;10076;52.008;4.708;2022-11-03T07:53:37;100797.81;;;14.96;100.00
19831;BME280;10076;52.008;4.708;2022-11-03T07:58:45;100793.91;;;14.91;100.00
19831;BME280;10076;52.008;4.708;2022-11-03T08:01:26;100787.94;;;15.08;100.00
19831;BME280;10076;52.008;4.708;2022-11-03T08:03:59;100788.44;;;14.92;100.00
19831;BME280;10076;52.008;4.708;2022-11-03T08:06:25;100779.06;;;14.88;100.00
19831;BME280;10076;52.008;4.708;2022-11-03T08:08:50;100775.69;;;14.86;100.00
19831;BME280;10076;52.008;4.708;2022-11-03T08:11:15;100772.91;;;14.97;100.00
19831;BME280;10076;52.008;4.708;2022-11-03T08:13:40;100771.41;;;15.14;100.00
19831;BME280;10076;52.008;4.708;2022-11-03T08:16:06;100768.06;;;15.21;100.00
19831;BME280;10076;52.008;4.708;2022-11-03T08:18:31;100759.00;;;15.23;100.00
19831;BME280;10076;52.008;4.708;2022-11-03T08:20:56;100748.09;;;15.26;100.00
19831;BME280;10076;52.008;4.708;2022-11-03T08:23:22;100739.41;;;15.34;100.00
19831;BME280;10076;52.008;4.708;2022-11-03T08:25:47;100747.63;;;15.21;100.00
19831;BME280;10076;52.008;4.708;2022-11-03T08:28:12;100739.97;;;15.28;100.00
19831;BME280;10076;52.008;4.708;2022-11-03T08:30:38;100735.34;;;15.30;100.00
19831;BME280;10076;52.008;4.708;2022-11-03T08:33:03;100735.19;;;15.41;100.00
19831;BME280;10076;52.008;4.708;2022-11-03T08:35:28;100750.16;;;15.51;100.00
19831;BME280;10076;52.008;4.708;2022-11-03T08:37:54;100725.78;;;15.46;100.00
19831;BME280;10076;52.008;4.708;2022-11-03T08:40:19;100725.69;;;15.29;100.00
19831;BME280;10076;52.008;4.708;2022-11-03T08:42:44;100715.72;;;15.40;100.00
19831;BME280;10076;52.008;4.708;2022-11-03T08:45:10;100709.56;;;15.49;100.00
19831;BME280;10076;52.008;4.708;2022-11-03T08:47:35;100696.94;;;15.51;100.00
19831;BME280;10076;52.008;4.708;2022-11-03T08:50:01;100685.88;;;15.46;100.00
19831;BME280;10076;52.008;4.708;2022-11-03T08:52:26;100669.88;;;15.65;100.00
19831;BME280;10076;52.008;4.708;2022-11-03T08:54:51;100662.88;;;15.55;100.00
19831;BME280;10076;52.008;4.708;2022-11-03T08:57:17;100660.63;;;15.60;100.00
19831;BME280;10076;52.008;4.708;2022-11-03T08:59:42;100661.50;;;15.60;100.00
19831;BME280;10076;52.008;4.708;2022-11-03T09:02:07;100657.88;;;15.52;100.00
19831;BME280;10076;52.008;4.708;2022-11-03T09:04:33;100646.38;;;15.51;100.00
19831;BME280;10076;52.008;4.708;2022-11-03T09:06:58;100652.94;;;15.57;100.00
19831;BME280;10076;52.008;4.708;2022-11-03T09:09:23;100649.41;;;15.66;100.00
19831;BME280;10076;52.008;4.708;2022-11-03T09:11:49;100647.00;;;15.82;100.00
19831;BME280;10076;52.008;4.708;2022-11-03T09:14:14;100633.69;;;15.82;100.00
19831;BME280;10076;52.008;4.708;2022-11-03T09:16:39;100629.47;;;15.89;100.00
19831;BME280;10076;52.008;4.708;2022-11-03T09:19:05;100625.31;;;16.03;100.00
19831;BME280;10076;52.008;4.708;2022-11-03T09:21:30;100623.41;;;15.96;100.00
19831;BME280;10076;52.008;4.708;2022-11-03T09:23:55;100614.91;;;15.83;100.00
19831;BME280;10076;52.008;4.708;2022-11-03T09:26:23;100604.00;;;16.03;100.00
19831;BME280;10076;52.008;4.708;2022-11-03T09:28:49;100594.78;;;16.25;100.00
19831;BME280;10076;52.008;4.708;2022-11-03T09:31:14;100614.53;;;16.32;100.00
19831;BME280;10076;52.008;4.708;2022-11-03T09:33:39;100589.72;;;16.22;100.00
19831;BME280;10076;52.008;4.708;2022-11-03T09:36:05;100586.59;;;16.36;100.00
19831;BME280;10076;52.008;4.708;2022-11-03T09:38:30;100580.94;;;16.39;100.00
19831;BME280;10076;52.008;4.708;2022-11-03T09:40:56;100580.59;;;16.24;100.00
19831;BME280;10076;52.008;4.708;2022-11-03T09:43:21;100583.69;;;16.29;100.00
19831;BME280;10076;52.008;4.708;2022-11-03T09:45:46;100580.88;;;16.48;100.00
19831;BME280;10076;52.008;4.708;2022-11-03T09:48:12;100589.25;;;16.53;100.00
19831;BME280;10076;52.008;4.708;2022-11-03T09:50:38;100561.75;;;16.35;100.00
19831;BME280;10076;52.008;4.708;2022-11-03T09:53:04;100569.63;;;16.54;100.00
19831;BME280;10076;52.008;4.708;2022-11-03T09:55:31;100565.97;;;16.55;100.00
19831;BME280;10076;52.008;4.708;2022-11-03T09:58:09;100566.28;;;16.52;100.00
19831;BME280;10076;52.008;4.708;2022-11-03T10:00:34;100558.75;;;16.48;100.00
19831;BME280;10076;52.008;4.708;2022-11-03T10:03:00;100559.88;;;16.62;100.00
19831;BME280;10076;52.008;4.708;2022-11-03T10:05:26;100559.72;;;16.64;100.00
19831;BME280;10076;52.008;4.708;2022-11-03T10:07:56;100543.16;;;16.26;100.00
19831;BME280;10076;52.008;4.708;2022-11-03T10:10:23;100548.22;;;16.29;100.00
19831;BME280;10076;52.008;4.708;2022-11-03T10:12:49;100545.25;;;16.49;100.00
19831;BME280;10076;52.008;4.708;2022-11-03T10:15:18;100543.34;;;16.59;100.00
19831;BME280;10076;52.008;4.708;2022-11-03T10:17:45;100534.41;;;16.85;100.00
19831;BME280;10076;52.008;4.708;2022-11-03T10:20:16;100533.13;;;16.72;100.00
19831;BME280;10076;52.008;4.708;2022-11-03T10:22:43;100531.38;;;16.80;100.00
19831;BME280;10076;52.008;4.708;2022-11-03T10:25:38;100524.59;;;16.86;100.00
19831;BME280;10076;52.008;4.708;2022-11-03T10:28:17;100519.72;;;16.81;100.00
19831;BME280;10076;52.008;4.708;2022-11-03T10:35:53;100492.69;;;17.02;100.00
19831;BME280;10076;52.008;4.708;2022-11-03T10:38:33;100489.13;;;16.93;100.00
19831;BME280;10076;52.008;4.708;2022-11-03T10:41:18;100480.66;;;16.98;100.00
19831;BME280;10076;52.008;4.708;2022-11-03T10:44:01;100463.78;;;16.89;100.00
19831;BME280;10076;52.008;4.708;2022-11-03T10:46:27;100466.91;;;16.85;100.00
19831;BME280;10076;52.008;4.708;2022-11-03T10:49:03;100459.69;;;17.03;100.00
19831;BME280;10076;52.008;4.708;2022-11-03T10:51:30;100449.84;;;17.03;100.00
19831;BME280;10076;52.008;4.708;2022-11-03T10:53:56;100458.81;;;17.28;100.00
19831;BME280;10076;52.008;4.708;2022-11-03T10:56:21;100460.50;;;17.29;100.00
19831;BME280;10076;52.008;4.708;2022-11-03T10:58:47;100460.25;;;17.97;100.00
19831;BME280;10076;52.008;4.708;2022-11-03T11:01:12;100447.25;;;18.09;100.00
19831;BME280;10076;52.008;4.708;2022-11-03T11:03:41;100452.66;;;18.41;100.00
19831;BME280;10076;52.008;4.708;2022-11-03T11:06:20;100446.47;;;18.49;100.00
19831;BME280;10076;52.008;4.708;2022-11-03T11:08:47;100437.13;;;18.29;100.00
19831;BME280;10076;52.008;4.708;2022-11-03T11:11:16;100441.13;;;18.25;100.00
19831;BME280;10076;52.008;4.708;2022-11-03T11:13:42;100435.22;;;17.98;100.00
19831;BME280;10076;52.008;4.708;2022-11-03T11:16:46;100436.72;;;18.16;100.00
19831;BME280;10076;52.008;4.708;2022-11-03T11:19:13;100431.22;;;17.94;100.00
19831;BME280;10076;52.008;4.708;2022-11-03T11:24:05;100421.38;;;18.18;100.00
19831;BME280;10076;52.008;4.708;2022-11-03T11:26:33;100412.84;;;18.70;100.00
19831;BME280;10076;52.008;4.708;2022-11-03T11:31:47;100407.81;;;18.75;100.00
19831;BME280;10076;52.008;4.708;2022-11-03T11:36:46;100399.69;;;18.45;100.00
19831;BME280;10076;52.008;4.708;2022-11-03T11:42:08;100383.81;;;18.19;100.00
19831;BME280;10076;52.008;4.708;2022-11-03T11:47:48;100362.06;;;18.06;100.00
19831;BME280;10076;52.008;4.708;2022-11-03T11:52:56;100353.56;;;18.43;100.00
19831;BME280;10076;52.008;4.708;2022-11-03T11:55:40;100345.88;;;18.40;100.00
19831;BME280;10076;52.008;4.708;2022-11-03T11:58:45;100328.16;;;18.15;100.00
19831;BME280;10076;52.008;4.708;2022-11-03T12:01:25;100326.16;;;18.17;100.00
19831;BME280;10076;52.008;4.708;2022-11-03T12:04:16;100320.16;;;17.91;100.00
19831;BME280;10076;52.008;4.708;2022-11-03T12:06:40;100322.69;;;17.93;100.00
19831;BME280;10076;52.008;4.708;2022-11-03T12:14:33;100296.59;;;17.95;100.00
19831;BME280;10076;52.008;4.708;2022-11-03T12:19:47;100274.09;;;17.89;100.00
19831;BME280;10076;52.008;4.708;2022-11-03T12:27:19;100288.28;;;17.82;100.00
19831;BME280;10076;52.008;4.708;2022-11-03T12:29:44;100284.91;;;17.96;100.00
19831;BME280;10076;52.008;4.708;2022-11-03T12:32:10;100277.72;;;18.20;100.00
19831;BME280;10076;52.008;4.708;2022-11-03T12:34:35;100261.16;;;18.86;100.00
19831;BME280;10076;52.008;4.708;2022-11-03T12:37:00;100255.09;;;19.98;100.00
19831;BME280;10076;52.008;4.708;2022-11-03T12:39:25;100256.81;;;20.56;100.00
19831;BME280;10076;52.008;4.708;2022-11-03T12:41:51;100262.63;;;20.74;100.00
19831;BME280;10076;52.008;4.708;2022-11-03T12:44:16;100248.84;;;20.77;100.00
19831;BME280;10076;52.008;4.708;2022-11-03T12:46:41;100251.69;;;21.04;100.00
19831;BME280;10076;52.008;4.708;2022-11-03T12:49:06;100233.69;;;21.55;100.00
19831;BME280;10076;52.008;4.708;2022-11-03T12:51:32;100233.13;;;22.14;100.00
19831;BME280;10076;52.008;4.708;2022-11-03T12:53:57;100219.09;;;22.86;100.00
19831;BME280;10076;52.008;4.708;2022-11-03T12:56:23;100213.06;;;22.84;100.00
19831;BME280;10076;52.008;4.708;2022-11-03T12:58:48;100213.72;;;22.18;100.00
19831;BME280;10076;52.008;4.708;2022-11-03T13:01:13;100220.09;;;21.62;100.00
19831;BME280;10076;52.008;4.708;2022-11-03T13:03:38;100213.41;;;21.17;100.00
19831;BME280;10076;52.008;4.708;2022-11-03T13:06:05;100218.47;;;21.26;100.00
19831;BME280;10076;52.008;4.708;2022-11-03T13:08:34;100194.38;;;20.77;100.00
19831;BME280;10076;52.008;4.708;2022-11-03T13:11:00;100178.47;;;20.17;100.00
19831;BME280;10076;52.008;4.708;2022-11-03T13:13:25;100188.81;;;20.06;100.00
19831;BME280;10076;52.008;4.708;2022-11-03T13:15:51;100176.66;;;19.81;100.00
19831;BME280;10076;52.008;4.708;2022-11-03T13:18:17;100170.25;;;19.68;100.00
19831;BME280;10076;52.008;4.708;2022-11-03T13:20:43;100155.06;;;19.46;100.00
19831;BME280;10076;52.008;4.708;2022-11-03T13:23:09;100142.78;;;19.15;100.00
19831;BME280;10076;52.008;4.708;2022-11-03T13:25:34;100140.94;;;18.55;100.00
19831;BME280;10076;52.008;4.708;2022-11-03T13:27:59;100138.19;;;18.71;100.00
19831;BME280;10076;52.008;4.708;2022-11-03T13:30:27;100141.34;;;18.74;100.00
19831;BME280;10076;52.008;4.708;2022-11-03T13:32:52;100131.69;;;18.65;100.00
19831;BME280;10076;52.008;4.708;2022-11-03T13:35:18;100137.13;;;18.79;100.00
19831;BME280;10076;52.008;4.708;2022-11-03T13:37:43;100132.81;;;18.40;100.00
19831;BME280;10076;52.008;4.708;2022-11-03T13:40:10;100136.97;;;18.51;100.00
19831;BME280;10076;52.008;4.708;2022-11-03T13:42:36;100145.25;;;18.17;100.00
19831;BME280;10076;52.008;4.708;2022-11-03T13:45:02;100130.03;;;18.34;100.00
19831;BME280;10076;52.008;4.708;2022-11-03T13:47:27;100134.31;;;17.97;100.00
19831;BME280;10076;52.008;4.708;2022-11-03T13:49:52;100139.97;;;18.01;100.00